Atlantic - Newfoundland: Past 24 Hour Conditions

 

Englee

04:30 PM NDT 20 September 2014
This table is a summary of hourly weather conditions for the past 24 hours.
Date / Time
(NDT)
Wind(knots) Conditions Visibility(km) Pressure(kPa) Air tempC) Relative humidity(%) Dew pointC)
20 September 2014
16:30 WSW 37 gust 50 N/A N/A 101.0 12 61 4
15:30 WSW 33 gust 45 N/A N/A 101.0 12 59 4
14:30 WSW 39 gust 51 N/A N/A 101.0 13 55 4
13:30 WSW 42 gust 53 N/A N/A 101.0 12 55 3
12:30 W 30 gust 43 N/A N/A 101.2 12 56 4
11:30 WSW 32 gust 37 N/A N/A 101.3 11 58 3
10:30 W 22 gust 31 N/A N/A 101.4 10 62 3
9:30 SW 12 gust 17 N/A N/A 101.6 8 73 3
8:30 WSW 14 N/A N/A 101.6 7 79 3
7:30 WSW 12 gust 20 N/A N/A 101.7 6 77 2
6:30 WNW 14 gust 19 N/A N/A 101.6 6 81 3
5:30 W 14 N/A N/A 101.6 6 81 3
4:30 WNW 7 N/A N/A 101.6 6 84 4
3:30 WNW 16 gust 23 N/A N/A 101.5 6 84 4
2:30 WNW 22 gust 28 N/A N/A 101.4 6 84 4
1:30 WNW 23 gust 29 N/A N/A 101.3 7 84 4
0:30 WNW 29 gust 34 N/A N/A 101.3 7 82 4
19 September 2014
23:30 WNW 22 gust 30 N/A N/A 101.2 7 84 4
22:30 WNW 26 gust 31 N/A N/A 101.2 6 87 4
21:30 WNW 23 gust 28 N/A N/A 101.1 7 78 3
20:30 W 28 gust 35 N/A N/A 101.1 6 75 2
19:30 W 23 gust 29 N/A N/A 101.1 7 63 1
18:30 WNW 27 gust 36 N/A N/A 101.0 8 61 1
17:30 WNW 28 gust 33 N/A N/A 101.0 9 56 1
16:30 WNW 20 gust 30 N/A N/A 101.0 10 52 1
 
Map of Atlantic - Newfoundland marine weather areas Southwestern Grand Banks - 44138 Banquereau - 44139 Tail of the Bank - 44140 Nickerson Bank - 44251 Northeast Burgeo Bank - 44255 Blanc-Sablon Airport Cap Whittle Chevery Natashquan Airport Heath Point Miscou Island Grand Étang Ingonish Beach North Mountain St.Paul Island J.A. Douglas McCurdy Sydney Airport Charlottetown Airport East Point North Cape Argentia Bonavista Burgeo Cape Race Corner Brook Daniel's Harbour Englee Ferolle Point La Scie Port aux Basques Rocky Harbour Sagona Island St. Anthony Airport St. John's Int'l Airport St. Lawrence Stephenville Airport Twillingate Winterland Wreckhouse Cartwright Airport Mary's Harbour Grates Cove Pool's Island Marticot Island Long Pond Îles de la Madeleine Airport
Legend: buoyBuoy land stationLand Station